Time;durP1;ratioP1;P1;durP2;ratioP2;P2;SDS_P1;SDS_P2;PMS_P1;PMS_P2;Temp;Humidity;BMP_temperature;BMP_pressure;BME280_temperature;BME280_humidity;BME280_pressure;Samples;Min_cycle;Max_cycle;Signal;HPM_P1;HPM_P2
2021/08/22 00:01:49;;;;;;;19.65;11.08;;;;;;;18.00;86.22;101258.69;1833835;78;21097;-61
2021/08/22 00:04:18;;;;;;;20.08;11.90;;;;;;;18.01;86.11;101262.20;1833790;77;21098;-62
2021/08/22 00:06:46;;;;;;;20.25;12.25;;;;;;;18.01;86.12;101255.54;1833884;78;21760;-61
2021/08/22 00:09:15;;;;;;;19.48;10.95;;;;;;;18.00;86.17;101258.69;1833805;78;21022;-61
2021/08/22 00:11:44;;;;;;;21.25;11.33;;;;;;;18.00;86.10;101267.13;1833847;77;21112;-61
2021/08/22 00:14:13;;;;;;;21.62;11.08;;;;;;;17.96;85.99;101264.28;1833810;78;21045;-61
2021/08/22 00:16:41;;;;;;;24.32;10.72;;;;;;;17.91;85.98;101259.26;1833833;77;21049;-61
2021/08/22 00:19:10;;;;;;;17.85;10.20;;;;;;;17.89;85.93;101258.02;1833832;78;21049;-61
2021/08/22 00:21:39;;;;;;;19.77;10.30;;;;;;;17.87;85.93;101260.37;1833922;78;21097;-61
2021/08/22 00:24:08;;;;;;;17.92;10.80;;;;;;;17.85;85.86;101256.95;1833842;78;21049;-61
2021/08/22 00:26:37;;;;;;;23.32;11.85;;;;;;;17.83;85.96;101258.82;1833801;78;21136;-61
2021/08/22 00:29:05;;;;;;;19.17;11.73;;;;;;;17.81;86.33;101256.73;1833844;78;21058;-61
2021/08/22 00:31:34;;;;;;;25.80;11.70;;;;;;;17.79;86.61;101251.98;1833703;78;21030;-62
2021/08/22 00:34:03;;;;;;;21.87;11.80;;;;;;;17.78;86.74;101252.46;1833937;77;21053;-61
2021/08/22 00:36:32;;;;;;;22.22;11.33;;;;;;;17.79;86.90;101249.31;1833994;78;21183;-61
2021/08/22 00:39:00;;;;;;;21.85;11.93;;;;;;;17.78;86.95;101251.58;1833775;78;21120;-61
2021/08/22 00:41:32;;;;;;;24.65;12.28;;;;;;;17.79;86.97;101245.31;1833782;78;21327;-61
2021/08/22 00:44:01;;;;;;;25.40;11.85;;;;;;;17.80;86.92;101244.34;1833699;78;21086;-62
2021/08/22 00:46:32;;;;;;;16.62;9.53;;;;;;;17.80;86.82;101247.89;1833732;78;21093;-61
2021/08/22 00:49:00;;;;;;;18.25;9.18;;;;;;;17.78;86.71;101247.59;1833746;77;21062;-60
2021/08/22 00:51:29;;;;;;;20.85;10.50;;;;;;;17.73;86.55;101246.06;1833894;78;21054;-61
2021/08/22 00:53:58;;;;;;;25.55;10.72;;;;;;;17.72;86.47;101251.03;1833808;78;21054;-61
2021/08/22 00:56:28;;;;;;;20.37;9.90;;;;;;;17.70;86.37;101244.91;1833761;78;21525;-62
2021/08/22 00:58:56;;;;;;;21.07;11.25;;;;;;;17.67;86.30;101242.45;1833907;78;21124;-61
2021/08/22 01:01:26;;;;;;;23.42;11.68;;;;;;;17.67;86.27;101241.58;1833870;78;21053;-61
2021/08/22 01:04:00;;;;;;;19.17;10.58;;;;;;;17.65;86.64;101235.49;1833907;78;21124;-61
2021/08/22 01:06:42;;;;;;;19.45;10.63;;;;;;;17.65;86.88;101237.70;1833446;78;21053;-61
2021/08/22 01:09:17;;;;;;;22.85;10.53;;;;;;;17.65;87.11;101241.70;1782205;80;21557;-61
2021/08/22 01:11:46;;;;;;;17.40;10.25;;;;;;;17.65;87.27;101240.36;1833924;78;21062;-61
2021/08/22 01:14:21;;;;;;;22.13;10.23;;;;;;;17.64;87.32;101237.79;1833819;78;21642;-61
2021/08/22 01:16:52;;;;;;;18.98;10.98;;;;;;;17.63;87.25;101244.05;1833184;78;21047;-61
2021/08/22 01:19:42;;;;;;;18.52;10.98;;;;;;;17.59;87.12;101239.39;1833108;78;21061;-61
2021/08/22 01:22:11;;;;;;;17.90;9.98;;;;;;;17.57;87.21;101239.95;1833822;78;21571;-61
2021/08/22 01:24:42;;;;;;;21.30;10.85;;;;;;;17.50;87.11;101238.16;1833761;78;21093;-61
2021/08/22 01:27:12;;;;;;;21.30;10.63;;;;;;;17.47;87.04;101232.16;1834027;78;21026;-60
2021/08/22 01:29:47;;;;;;;22.95;11.28;;;;;;;17.44;87.13;101232.34;1833910;78;21054;-61
2021/08/22 01:32:16;;;;;;;20.55;10.03;;;;;;;17.41;87.13;101233.84;1833641;77;21521;-61
2021/08/22 01:34:46;;;;;;;21.70;10.88;;;;;;;17.37;87.14;101235.83;1833963;78;21559;-61
2021/08/22 01:37:18;;;;;;;23.22;10.75;;;;;;;17.33;87.10;101232.48;1833824;78;21037;-61
2021/08/22 01:39:48;;;;;;;21.12;9.55;;;;;;;17.32;87.05;101235.27;1833791;78;21089;-60
2021/08/22 01:42:17;;;;;;;17.77;10.23;;;;;;;17.31;86.97;101235.72;1833807;78;21120;-60
2021/08/22 01:44:47;;;;;;;21.25;10.78;;;;;;;17.28;87.03;101238.58;1833615;78;21480;-61
2021/08/22 01:47:16;;;;;;;18.23;9.75;;;;;;;17.25;87.04;101236.09;1833785;78;21152;-61
2021/08/22 01:49:46;;;;;;;21.80;10.93;;;;;;;17.24;87.00;101239.69;1833796;78;21074;-60
2021/08/22 01:52:16;;;;;;;19.40;9.93;;;;;;;17.23;87.06;101239.80;1833854;78;21030;-60
2021/08/22 01:54:45;;;;;;;19.37;10.18;;;;;;;17.22;87.10;101237.59;1833778;78;21449;-60
2021/08/22 01:57:14;;;;;;;20.45;10.30;;;;;;;17.23;87.06;101239.80;1833866;78;21544;-61
2021/08/22 01:59:43;;;;;;;17.82;10.90;;;;;;;17.23;87.07;101244.64;1833799;78;21140;-61
2021/08/22 02:02:12;;;;;;;22.00;10.38;;;;;;;17.23;87.43;101243.31;1833774;78;21094;-60
2021/08/22 02:04:49;;;;;;;24.18;11.12;;;;;;;17.24;87.50;101241.50;1833790;78;21177;-60
2021/08/22 02:07:21;;;;;;;19.02;10.75;;;;;;;17.24;87.48;101242.34;1833875;78;21162;-60
2021/08/22 02:09:56;;;;;;;24.20;11.08;;;;;;;17.23;87.40;101243.31;1832606;78;21591;-61
2021/08/22 02:12:25;;;;;;;20.23;11.33;;;;;;;17.20;87.39;101244.81;1833632;77;21151;-60
2021/08/22 02:14:59;;;;;;;22.05;11.10;;;;;;;17.20;87.45;101245.30;1833765;77;21567;-60
2021/08/22 02:17:31;;;;;;;19.77;10.55;;;;;;;17.17;87.55;101244.53;1830975;78;21161;-60
2021/08/22 02:20:02;;;;;;;20.72;11.00;;;;;;;17.17;87.63;101242.33;1833892;78;21105;-62
2021/08/22 02:22:32;;;;;;;27.02;10.82;;;;;;;17.15;87.53;101246.44;1831052;78;21134;-61
2021/08/22 02:25:02;;;;;;;21.40;10.93;;;;;;;17.13;87.50;101245.67;1816244;79;21517;-60
2021/08/22 02:27:31;;;;;;;20.80;11.88;;;;;;;17.13;87.78;101251.44;1816376;78;21122;-60
2021/08/22 02:30:00;;;;;;;23.98;12.05;;;;;;;17.14;88.00;101252.69;1816271;79;21628;-59
2021/08/22 02:32:28;;;;;;;21.17;11.65;;;;;;;17.14;88.26;101253.17;1816278;79;21051;-61
2021/08/22 02:34:57;;;;;;;22.73;10.90;;;;;;;17.15;88.26;101245.55;1816274;79;21117;-61
2021/08/22 02:37:25;;;;;;;20.77;12.35;;;;;;;17.17;88.26;101250.30;1816436;79;21085;-61
2021/08/22 02:39:54;;;;;;;18.45;10.95;;;;;;;17.15;88.13;101245.55;1816257;79;21121;-61
2021/08/22 02:42:23;;;;;;;15.05;9.58;;;;;;;17.14;88.03;101250.51;1816274;79;21114;-61
2021/08/22 02:44:51;;;;;;;21.40;10.48;;;;;;;17.13;87.94;101246.12;1816298;79;21099;-61
2021/08/22 02:47:20;;;;;;;19.15;10.93;;;;;;;17.13;88.04;101251.44;1816083;79;21185;-61
2021/08/22 02:49:49;;;;;;;17.87;10.32;;;;;;;17.12;88.12;101245.75;1816269;79;21047;-60
2021/08/22 02:52:17;;;;;;;18.50;10.28;;;;;;;17.11;88.29;101254.67;1816282;79;21086;-61
2021/08/22 02:54:46;;;;;;;18.52;10.28;;;;;;;17.11;88.33;101254.67;1816258;79;21059;-61
2021/08/22 02:57:17;;;;;;;18.05;10.65;;;;;;;17.12;88.38;101260.39;1816222;79;21091;-61
2021/08/22 02:59:46;;;;;;;21.93;11.20;;;;;;;17.12;88.50;101268.38;1816233;79;21157;-62
2021/08/22 03:02:15;;;;;;;19.98;11.83;;;;;;;17.13;88.42;101272.28;1816260;79;21095;-61
2021/08/22 03:04:44;;;;;;;20.45;10.93;;;;;;;17.14;88.48;101267.80;1816361;79;21087;-61
2021/08/22 03:07:12;;;;;;;24.12;11.83;;;;;;;17.17;88.69;101267.60;1816183;79;21165;-61
2021/08/22 03:09:41;;;;;;;18.70;10.63;;;;;;;17.24;88.75;101270.30;1816219;79;21123;-60
2021/08/22 03:12:10;;;;;;;18.35;11.12;;;;;;;17.30;88.81;101275.73;1816129;78;21600;-61
2021/08/22 03:14:39;;;;;;;17.80;10.28;;;;;;;17.36;88.77;101272.24;1816149;79;21180;-61
2021/08/22 03:17:09;;;;;;;15.98;9.58;;;;;;;17.45;88.73;101274.00;1816302;79;21193;-61
2021/08/22 03:19:37;;;;;;;14.30;8.35;;;;;;;17.52;88.63;101269.98;1816304;79;21513;-61
2021/08/22 03:22:06;;;;;;;17.45;9.60;;;;;;;17.59;88.46;101268.67;1816314;79;21190;-61
2021/08/22 03:24:35;;;;;;;15.45;8.33;;;;;;;17.65;88.03;101275.44;1816203;78;21082;-61
2021/08/22 03:27:04;;;;;;;17.65;9.58;;;;;;;17.70;87.94;101266.70;1816368;78;21150;-61
2021/08/22 03:29:33;;;;;;;19.50;8.15;;;;;;;17.75;87.86;101272.13;1816393;79;21075;-60
2021/08/22 03:32:02;;;;;;;17.07;8.35;;;;;;;17.83;87.75;101269.48;1816321;79;21026;-61
2021/08/22 03:34:30;;;;;;;11.85;7.47;;;;;;;17.94;87.72;101268.38;1816268;79;21099;-61
2021/08/22 03:36:59;;;;;;;18.50;8.20;;;;;;;18.05;87.64;101263.72;1816497;79;21055;-61
2021/08/22 03:39:28;;;;;;;17.23;7.60;;;;;;;18.10;87.02;101253.63;1816356;79;21058;-61
2021/08/22 03:41:57;;;;;;;19.37;8.80;;;;;;;18.20;86.56;101259.23;1816207;79;21070;-61
2021/08/22 03:44:25;;;;;;;17.23;8.03;;;;;;;18.34;86.31;101260.55;1816257;79;21027;-61
2021/08/22 03:46:54;;;;;;;14.10;9.03;;;;;;;18.47;85.73;101268.63;1816256;78;21094;-60
2021/08/22 03:49:23;;;;;;;14.87;8.03;;;;;;;18.63;85.41;101268.52;1816250;79;21090;-60
2021/08/22 03:51:52;;;;;;;13.20;7.87;;;;;;;18.77;84.77;101272.45;1816150;79;21063;-61
2021/08/22 03:54:20;;;;;;;14.25;7.00;;;;;;;18.88;83.93;101279.30;1816268;79;21180;-61
2021/08/22 03:56:49;;;;;;;18.60;8.55;;;;;;;19.03;83.55;101282.81;1816271;79;21066;-60
2021/08/22 03:59:18;;;;;;;10.35;7.60;;;;;;;19.20;83.12;101285.69;1816341;79;21121;-61
2021/08/22 04:01:47;;;;;;;12.28;7.33;;;;;;;19.40;82.78;101284.81;1816311;79;21117;-60
2021/08/22 04:04:17;;;;;;;13.30;7.12;;;;;;;19.59;82.25;101290.63;1814240;79;21139;-62
2021/08/22 04:06:48;;;;;;;14.03;6.90;;;;;;;19.78;81.22;101281.37;1816363;79;21243;-60
2021/08/22 04:09:20;;;;;;;11.48;6.70;;;;;;;19.98;80.76;101280.83;1816315;79;21157;-60
2021/08/22 04:11:56;;;;;;;15.35;8.40;;;;;;;20.13;80.17;101281.57;1816378;79;21083;-61
2021/08/22 04:14:25;;;;;;;17.02;7.87;;;;;;;20.35;79.94;101277.37;1816260;79;21501;-60
2021/08/22 04:16:54;;;;;;;13.58;8.23;;;;;;;20.62;79.68;101282.59;1816160;79;21027;-62
2021/08/22 04:19:23;;;;;;;19.12;8.53;;;;;;;20.83;79.00;101279.66;1816194;79;21094;-61
2021/08/22 04:21:52;;;;;;;11.95;7.67;;;;;;;21.06;78.45;101286.45;1816261;79;21658;-60
2021/08/22 04:24:21;;;;;;;12.55;7.20;;;;;;;21.26;77.56;101282.78;1821377;78;21674;-60
2021/08/22 04:26:50;;;;;;;12.75;7.20;;;;;;;21.42;77.40;101284.66;1833784;78;21061;-61
2021/08/22 04:29:19;;;;;;;9.80;5.67;;;;;;;21.48;76.16;101285.55;1833786;78;21136;-61
2021/08/22 04:31:48;;;;;;;17.45;6.47;;;;;;;21.62;75.98;101286.34;1833952;78;21054;-60
2021/08/22 04:34:17;;;;;;;18.75;7.17;;;;;;;21.81;75.88;101285.76;1833923;78;21053;-60
2021/08/22 04:36:46;;;;;;;24.63;8.33;;;;;;;22.05;75.31;101284.32;1833889;78;21098;-60
2021/08/22 04:39:20;;;;;;;15.35;7.10;;;;;;;22.30;75.06;101288.63;1833856;78;21501;-60
2021/08/22 04:41:46;;;;;;;12.63;6.37;;;;;;;22.44;73.95;101281.64;1833517;78;21148;-61
2021/08/22 04:44:15;;;;;;;16.35;6.72;;;;;;;22.63;73.48;101286.39;1833746;78;21547;-61
2021/08/22 04:46:46;;;;;;;13.72;6.78;;;;;;;22.89;73.52;101288.27;1833780;78;21608;-60
2021/08/22 04:49:15;;;;;;;14.98;6.95;;;;;;;23.19;73.26;101295.28;1833852;78;21156;-60
2021/08/22 04:51:43;;;;;;;9.68;5.33;;;;;;;23.57;72.86;101299.23;1833857;77;21058;-61
2021/08/22 04:54:12;;;;;;;9.48;5.87;;;;;;;23.78;71.56;101295.22;1833806;78;21545;-61
2021/08/22 04:56:41;;;;;;;11.22;5.92;;;;;;;24.05;71.52;101294.66;1833944;78;21125;-61
2021/08/22 04:59:10;;;;;;;16.95;6.67;;;;;;;24.40;70.86;101296.95;1833875;78;21535;-60
2021/08/22 05:01:39;;;;;;;8.45;5.05;;;;;;;24.76;70.05;101300.55;1833846;78;21082;-61
2021/08/22 05:04:07;;;;;;;19.77;6.03;;;;;;;25.12;69.43;101300.86;1833830;78;21124;-60
2021/08/22 05:06:36;;;;;;;11.05;5.20;;;;;;;25.48;68.73;101299.83;1833845;78;21054;-60
2021/08/22 05:09:05;;;;;;;9.30;4.80;;;;;;;25.73;67.81;101296.52;1833678;78;21081;-61
2021/08/22 05:11:35;;;;;;;10.00;4.92;;;;;;;25.94;66.61;101300.90;1833803;78;21124;-61
2021/08/22 05:14:04;;;;;;;12.10;5.37;;;;;;;26.12;65.66;101295.59;1833936;78;21127;-60
2021/08/22 05:16:32;;;;;;;13.72;5.83;;;;;;;26.30;65.14;101292.94;1833828;77;21057;-61
2021/08/22 05:19:01;;;;;;;12.60;4.55;;;;;;;26.46;64.54;101293.14;1833859;78;21097;-60
2021/08/22 05:21:30;;;;;;;8.50;5.33;;;;;;;26.73;64.42;101284.20;1833678;78;21116;-61
2021/08/22 05:23:58;;;;;;;7.45;4.50;;;;;;;27.12;64.05;101285.77;1833827;78;21480;-61
2021/08/22 05:26:27;;;;;;;9.83;4.95;;;;;;;27.47;63.40;101288.13;1819014;78;21621;-60
2021/08/22 05:28:56;;;;;;;7.87;4.35;;;;;;;27.81;62.46;101283.27;1816180;79;21469;-60
2021/08/22 05:31:25;;;;;;;17.00;4.50;;;;;;;28.24;62.08;101285.58;1816315;79;21120;-60
2021/08/22 05:33:54;;;;;;;14.00;5.08;;;;;;;28.55;61.27;101283.67;1816176;78;21079;-60
2021/08/22 05:36:24;;;;;;;11.75;4.45;;;;;;;28.96;60.85;101284.63;1816108;79;21180;-60
2021/08/22 05:38:56;;;;;;;21.60;4.80;;;;;;;29.31;60.01;101284.48;1816187;78;21099;-61
2021/08/22 05:41:26;;;;;;;7.92;4.53;;;;;;;29.41;58.46;101287.88;1816422;79;21141;-61
2021/08/22 05:43:55;;;;;;;7.62;4.15;;;;;;;29.60;58.08;101280.76;1816189;79;21505;-61
2021/08/22 05:46:23;;;;;;;10.38;4.67;;;;;;;29.88;57.73;101280.39;1816111;79;21057;-61
2021/08/22 05:48:52;;;;;;;8.85;4.95;;;;;;;30.05;57.05;101277.11;1816313;79;21180;-61
2021/08/22 05:51:22;;;;;;;8.70;4.50;;;;;;;30.35;56.42;101272.77;1816285;78;21159;-61
2021/08/22 05:53:51;;;;;;;9.30;4.67;;;;;;;30.59;56.04;101274.50;1816216;79;21101;-61
2021/08/22 05:56:20;;;;;;;9.88;4.67;;;;;;;30.76;54.81;101271.69;1816292;79;21046;-61
2021/08/22 05:58:49;;;;;;;11.28;4.90;;;;;;;31.01;54.26;101262.05;1816348;79;21111;-61
2021/08/22 06:01:17;;;;;;;9.05;4.28;;;;;;;31.08;53.79;101272.01;1816284;79;21192;-61
2021/08/22 06:03:46;;;;;;;8.73;4.55;;;;;;;31.20;53.25;101277.02;1816510;79;21095;-61
2021/08/22 06:06:15;;;;;;;12.20;4.65;;;;;;;31.20;52.17;101275.66;1816280;79;21086;-61
2021/08/22 06:08:43;;;;;;;11.50;4.17;;;;;;;31.30;52.19;101273.50;1816310;79;21103;-60
2021/08/22 06:11:12;;;;;;;10.43;4.67;;;;;;;31.42;51.51;101274.77;1816487;78;21141;-61
2021/08/22 06:13:41;;;;;;;6.97;3.87;;;;;;;31.64;51.61;101274.94;1816225;78;21698;-61
2021/08/22 06:16:10;;;;;;;11.33;4.90;;;;;;;31.81;50.80;101273.72;1815896;79;21150;-62
2021/08/22 06:18:39;;;;;;;7.92;4.20;;;;;;;31.89;50.14;101273.64;1815826;79;21103;-62
2021/08/22 06:21:07;;;;;;;15.48;8.28;;;;;;;32.05;49.94;101269.06;1816245;78;21050;-69
2021/08/22 06:23:36;;;;;;;10.58;5.05;;;;;;;32.18;49.53;101266.50;1814554;79;21048;-68
2021/08/22 06:26:05;;;;;;;9.00;4.75;;;;;;;32.32;48.72;101268.37;1828434;77;21044;-68
2021/08/22 06:28:33;;;;;;;9.38;4.25;;;;;;;32.60;47.89;101260.86;1862927;76;21105;-68
2021/08/22 06:31:02;;;;;;;6.90;3.83;;;;;;;32.86;47.42;101264.91;1864692;76;21577;-71
2021/08/22 06:33:31;;;;;;;9.85;4.53;;;;;;;32.91;46.88;101263.81;1862955;77;21010;-70
2021/08/22 06:36:03;;;;;;;7.80;4.65;;;;;;;33.16;47.06;101261.53;1859579;76;21139;-62
2021/08/22 06:38:32;;;;;;;8.00;3.72;;;;;;;33.33;46.25;101255.30;1834163;77;21505;-62
2021/08/22 06:41:01;;;;;;;8.55;3.95;;;;;;;33.61;45.58;101258.55;1834164;77;21127;-70
2021/08/22 06:43:29;;;;;;;8.68;3.90;;;;;;;33.56;44.13;101256.39;1833953;78;21136;-72
2021/08/22 06:45:58;;;;;;;7.85;3.52;;;;;;;33.55;44.50;101253.36;1837601;77;21117;-66
2021/08/22 06:48:27;;;;;;;7.33;3.95;;;;;;;33.87;43.68;101255.69;1822868;79;21030;-69
2021/08/22 06:50:55;;;;;;;9.53;3.92;;;;;;;34.15;43.04;101255.08;1883967;75;21077;-68
2021/08/22 06:53:24;;;;;;;5.95;3.92;;;;;;;34.29;42.54;101253.29;1865035;77;21117;-68
2021/08/22 06:55:52;;;;;;;10.18;4.33;;;;;;;34.69;42.17;101238.91;1870037;75;21066;-68
2021/08/22 06:58:23;;;;;;;11.95;4.50;;;;;;;34.89;41.66;101253.98;1898905;75;21047;-67
2021/08/22 07:00:51;;;;;;;6.60;3.80;;;;;;;34.89;41.66;101253.98;1898463;75;21222;-68
2021/08/22 07:03:20;;;;;;;8.00;3.85;;;;;;;34.65;40.60;101248.55;1898852;75;21535;-70
2021/08/22 07:05:49;;;;;;;8.43;3.83;;;;;;;34.61;40.91;101257.16;1894590;75;21116;-69
2021/08/22 07:08:22;;;;;;;5.92;3.92;;;;;;;34.68;41.33;101250.87;1865046;77;21152;-67
2021/08/22 07:10:49;;;;;;;8.10;3.60;;;;;;;34.82;40.83;101253.97;1868273;75;21133;-66
2021/08/22 07:13:18;;;;;;;7.45;3.92;;;;;;;34.48;40.35;101246.19;1898867;75;21039;-67
2021/08/22 07:15:46;;;;;;;5.80;3.65;;;;;;;33.63;40.90;101253.72;1898588;75;21121;-66
2021/08/22 07:18:15;;;;;;;7.05;4.22;;;;;;;32.61;42.94;101253.02;1898702;75;21081;-67
2021/08/22 07:20:44;;;;;;;8.23;4.65;;;;;;;32.37;44.14;101255.55;1898467;75;21036;-65
2021/08/22 07:23:13;;;;;;;8.23;4.60;;;;;;;32.15;44.97;101251.92;1866463;77;21054;-67
2021/08/22 07:25:41;;;;;;;9.63;4.25;;;;;;;32.85;44.12;101246.84;1864219;77;21116;-63
2021/08/22 07:28:10;;;;;;;6.75;4.25;;;;;;;33.31;42.52;101250.56;1800604;79;21142;-67
2021/08/22 07:30:39;;;;;;;5.17;3.10;;;;;;;33.79;41.85;101247.98;1832170;77;21120;-68
2021/08/22 07:33:07;;;;;;;6.40;3.70;;;;;;;34.14;39.69;101245.21;1832359;78;21593;-67
2021/08/22 07:35:36;;;;;;;8.05;3.90;;;;;;;34.34;39.35;101240.36;1833335;77;21166;-66
2021/08/22 07:38:05;;;;;;;16.05;5.97;;;;;;;34.34;39.35;101240.36;1863148;77;21049;-65
2021/08/22 07:40:34;;;;;;;11.18;4.12;;;;;;;34.36;38.86;101229.56;1864828;77;21029;-68
2021/08/22 07:43:02;;;;;;;8.65;4.17;;;;;;;33.70;39.66;101243.72;1862777;76;21105;-71
2021/08/22 07:45:31;;;;;;;9.78;3.87;;;;;;;33.50;40.11;101239.98;1864949;77;21041;-67
2021/08/22 07:48:00;;;;;;;9.73;3.47;;;;;;;34.23;39.93;101234.45;1802417;78;21135;-66
2021/08/22 07:50:28;;;;;;;7.15;3.92;;;;;;;34.90;38.92;101231.89;1800765;80;21175;-68
2021/08/22 07:52:57;;;;;;;6.78;4.17;;;;;;;35.42;38.29;101235.39;1804018;79;21092;-68
2021/08/22 07:55:26;;;;;;;8.75;3.47;;;;;;;35.62;36.75;101225.74;1802416;80;21142;-63
2021/08/22 07:57:57;;;;;;;5.45;3.90;;;;;;;35.62;36.75;101225.74;1864476;77;21124;-63
2021/08/22 08:00:44;;;;;;;8.30;3.58;;;;;;;35.48;37.02;101224.95;1884147;75;21194;-63
2021/08/22 08:03:13;;;;;;;11.08;3.90;;;;;;;35.62;37.10;101217.02;1884429;76;21043;-67
2021/08/22 08:05:42;;;;;;;8.58;4.53;;;;;;;35.26;36.62;101225.71;1884236;76;21042;-68
2021/08/22 08:08:10;;;;;;;6.35;4.15;;;;;;;34.50;37.95;101220.85;1884205;76;21607;-68
2021/08/22 08:10:39;;;;;;;8.28;4.08;;;;;;;34.01;39.04;101213.71;1884131;76;21159;-68
2021/08/22 08:13:08;;;;;;;7.60;4.45;;;;;;;34.01;39.04;101213.71;1902471;75;21205;-67
2021/08/22 08:15:36;;;;;;;7.53;4.28;;;;;;;33.35;40.11;101217.73;1902294;75;21486;-67
2021/08/22 08:18:05;;;;;;;7.90;4.20;;;;;;;34.06;40.56;101215.31;1902272;75;20989;-68
2021/08/22 08:20:34;;;;;;;6.87;3.72;;;;;;;34.69;38.91;101208.83;1902300;75;21129;-68
2021/08/22 08:23:03;;;;;;;6.75;4.12;;;;;;;34.84;36.75;101213.56;1902325;75;21664;-70
2021/08/22 08:25:32;;;;;;;8.35;3.90;;;;;;;34.81;36.89;101211.27;1902243;75;21013;-72
2021/08/22 08:28:01;;;;;;;5.37;3.60;;;;;;;34.90;36.97;101211.38;1905232;75;21046;-60
2021/08/22 08:30:30;;;;;;;6.35;3.42;;;;;;;35.05;36.42;101206.23;1905087;75;21030;-61
2021/08/22 08:32:59;;;;;;;6.42;3.42;;;;;;;35.36;36.32;101209.17;1870142;77;21095;-66
2021/08/22 08:35:27;;;;;;;5.42;3.67;;;;;;;35.56;35.73;101209.64;1870088;77;21119;-63
2021/08/22 08:37:56;;;;;;;6.28;3.72;;;;;;;35.44;34.97;101203.16;1902469;75;21048;-64
2021/08/22 08:40:25;;;;;;;5.53;3.85;;;;;;;35.46;35.14;101201.05;1902281;75;21145;-60
2021/08/22 08:43:02;;;;;;;5.92;3.90;;;;;;;35.80;35.79;101204.56;1902438;75;21168;-60
2021/08/22 08:45:48;;;;;;;8.43;3.62;;;;;;;35.90;36.05;101206.33;1901431;75;21495;-61
2021/08/22 08:48:22;;;;;;;8.03;4.42;;;;;;;35.80;36.09;101204.56;1902275;75;21045;-61
2021/08/22 08:51:18;;;;;;;12.88;6.00;;;;;;;34.96;37.09;101202.32;1901913;75;21040;-60
2021/08/22 08:53:49;;;;;;;6.60;3.95;;;;;;;35.30;37.31;101192.24;1902422;75;21044;-60
2021/08/22 08:56:19;;;;;;;9.15;4.17;;;;;;;35.19;37.84;101199.70;1902301;75;21111;-60
2021/08/22 08:58:48;;;;;;;6.85;3.52;;;;;;;34.42;38.32;101193.72;1902286;75;21060;-61
2021/08/22 09:01:17;;;;;;;7.62;4.42;;;;;;;34.96;38.21;101196.84;1902209;75;21060;-60
2021/08/22 09:04:10;;;;;;;7.03;3.95;;;;;;;34.96;38.21;101196.84;1902390;75;21060;-60
2021/08/22 09:07:14;;;;;;;9.40;4.15;;;;;;;34.90;37.89;101196.87;1864445;75;21083;-60
2021/08/22 09:10:19;;;;;;;10.13;4.08;;;;;;;34.71;38.78;101193.05;1902220;75;21052;-60
2021/08/22 09:13:24;;;;;;;8.63;4.37;;;;;;;35.53;37.63;101187.65;1902243;75;21542;-60
2021/08/22 09:16:08;;;;;;;6.58;3.67;;;;;;;35.53;37.63;101187.65;1902383;75;21032;-60
2021/08/22 09:19:05;;;;;;;4.87;3.90;;;;;;;36.05;36.94;101193.18;1902367;75;21040;-60
2021/08/22 09:21:53;;;;;;;6.20;3.75;;;;;;;35.82;37.42;101200.56;1902405;75;21563;-60
2021/08/22 09:24:58;;;;;;;11.18;4.20;;;;;;;33.91;39.58;101184.05;1902292;75;21412;-61
2021/08/22 09:27:52;;;;;;;8.88;4.20;;;;;;;33.91;39.58;101184.05;1902174;75;21129;-61
2021/08/22 09:30:55;;;;;;;7.22;4.15;;;;;;;33.12;39.98;101178.94;1902208;75;21064;-60
2021/08/22 09:33:59;;;;;;;8.03;3.80;;;;;;;33.97;40.21;101182.39;1865592;75;21491;-60
2021/08/22 09:37:04;;;;;;;7.33;3.60;;;;;;;34.68;39.07;101179.78;1902377;75;21102;-60
2021/08/22 09:40:07;;;;;;;6.53;3.62;;;;;;;34.71;38.33;101186.21;1902501;75;21032;-60
2021/08/22 09:43:14;;;;;;;7.72;3.62;;;;;;;33.56;39.10;101180.48;1817061;79;21538;-60
2021/08/22 09:46:20;;;;;;;5.03;3.30;;;;;;;33.30;39.76;101182.53;1915029;75;21499;-60
2021/08/22 09:49:27;;;;;;;7.80;4.40;;;;;;;33.89;39.66;101176.59;1914976;75;21091;-60
2021/08/22 09:52:35;;;;;;;8.55;3.80;;;;;;;34.49;38.92;101175.44;1884378;76;21148;-60
2021/08/22 09:55:38;;;;;;;8.93;4.12;;;;;;;35.06;38.27;101171.79;1884180;76;21046;-60
2021/08/22 09:58:25;;;;;;;7.60;3.12;;;;;;;34.71;37.92;101176.63;1884596;76;21042;-61
2021/08/22 10:01:21;;;;;;;10.32;3.85;;;;;;;33.44;38.51;101175.59;1878708;76;21070;-61
2021/08/22 10:03:53;;;;;;;7.55;3.83;;;;;;;32.73;39.84;101170.72;1875293;76;21070;-61
2021/08/22 10:06:30;;;;;;;7.85;3.60;;;;;;;32.76;40.01;101172.53;1875231;76;21030;-61
2021/08/22 10:09:13;;;;;;;7.37;4.45;;;;;;;33.48;39.68;101170.58;1875208;76;21086;-61
2021/08/22 10:11:55;;;;;;;6.65;3.65;;;;;;;33.77;38.54;101161.81;1875230;76;21149;-61
2021/08/22 10:14:26;;;;;;;5.90;3.60;;;;;;;34.12;37.67;101168.04;1875262;76;21046;-61
2021/08/22 10:16:58;;;;;;;8.95;3.62;;;;;;;34.46;37.79;101166.81;1875289;76;21144;-61
2021/08/22 10:19:29;;;;;;;6.25;3.35;;;;;;;34.54;37.14;101161.13;1875234;76;21132;-61
2021/08/22 10:22:19;;;;;;;10.45;4.10;;;;;;;33.85;37.63;101161.66;1874150;76;21166;-67
2021/08/22 10:24:54;;;;;;;8.28;4.20;;;;;;;32.87;38.65;101169.80;1875018;76;21050;-66
2021/08/22 10:27:37;;;;;;;6.72;4.03;;;;;;;32.17;40.27;101168.13;1875158;75;21048;-64
2021/08/22 10:30:12;;;;;;;11.12;4.00;;;;;;;31.77;40.75;101171.68;1895687;76;21104;-66
2021/08/22 10:32:58;;;;;;;10.38;4.45;;;;;;;32.23;41.28;101164.62;1899270;75;21441;-68
2021/08/22 10:35:29;;;;;;;11.73;4.85;;;;;;;32.87;41.25;101167.91;1880201;75;21050;-66
2021/08/22 10:38:21;;;;;;;17.12;9.83;;;;;;;33.28;40.66;101163.63;1863687;77;21056;-67
2021/08/22 10:40:52;;;;;;;7.55;4.25;;;;;;;33.41;40.04;101169.69;1867950;76;21213;-63
2021/08/22 10:43:27;;;;;;;7.97;4.20;;;;;;;33.50;39.52;101167.12;1895003;74;21076;-63
2021/08/22 10:45:56;;;;;;;12.73;4.03;;;;;;;33.70;39.50;101158.21;1894234;76;21549;-61
2021/08/22 10:48:27;;;;;;;9.78;3.80;;;;;;;34.01;39.52;101160.44;1894256;76;21077;-61
2021/08/22 10:51:07;;;;;;;6.08;3.25;;;;;;;33.85;39.11;101161.12;1894390;76;21053;-61
2021/08/22 10:53:37;;;;;;;7.35;4.00;;;;;;;33.62;39.46;101164.66;1894199;75;21041;-61
2021/08/22 10:56:29;;;;;;;7.10;3.90;;;;;;;33.24;39.66;101156.89;1894274;75;21033;-61
2021/08/22 10:59:08;;;;;;;7.62;4.85;;;;;;;33.04;39.77;101154.81;1894188;76;21114;-61
2021/08/22 11:01:36;;;;;;;10.98;4.05;;;;;;;32.55;40.47;101161.06;1892751;75;21072;-60
2021/08/22 11:04:10;;;;;;;10.55;4.50;;;;;;;31.90;41.55;101154.14;1894205;76;21021;-60
2021/08/22 11:07:01;;;;;;;6.78;4.35;;;;;;;31.34;42.65;101156.51;1894296;76;21036;-60
2021/08/22 11:09:46;;;;;;;8.70;4.25;;;;;;;30.90;43.63;101158.09;1894223;76;21547;-62
2021/08/22 11:12:25;;;;;;;5.53;3.72;;;;;;;30.64;44.54;101154.41;1894396;76;21114;-61
2021/08/22 11:14:54;;;;;;;7.85;4.28;;;;;;;30.75;44.57;101160.77;1894321;76;21036;-61
2021/08/22 11:17:23;;;;;;;8.25;4.03;;;;;;;30.77;44.26;101153.79;1894254;75;21029;-61
2021/08/22 11:19:52;;;;;;;6.87;3.70;;;;;;;30.87;44.95;101157.08;1894133;76;21060;-62
2021/08/22 11:22:29;;;;;;;6.33;4.33;;;;;;;30.99;44.97;101150.73;1894296;76;21040;-61
2021/08/22 11:24:59;;;;;;;8.53;3.87;;;;;;;31.07;45.41;101153.36;1873309;76;21071;-61
2021/08/22 11:27:33;;;;;;;6.70;3.62;;;;;;;31.08;44.55;101156.43;1873359;76;21117;-61
2021/08/22 11:30:08;;;;;;;9.30;4.45;;;;;;;30.98;43.69;101149.03;1873271;76;21063;-61
2021/08/22 11:32:37;;;;;;;8.15;4.00;;;;;;;30.86;43.83;101155.41;1839924;78;21211;-61
2021/08/22 11:35:18;;;;;;;9.15;3.60;;;;;;;30.96;44.78;101151.09;1840481;78;21046;-61
2021/08/22 11:37:47;;;;;;;11.03;4.08;;;;;;;31.05;44.56;101162.75;1840524;78;21047;-61
2021/08/22 11:40:18;;;;;;;7.80;3.72;;;;;;;30.91;44.22;101152.16;1840457;78;21071;-61
2021/08/22 11:42:52;;;;;;;7.75;4.47;;;;;;;30.84;44.48;101143.88;1840287;78;21113;-61
2021/08/22 11:45:23;;;;;;;11.88;5.50;;;;;;;30.82;44.70;101142.35;1872656;76;21055;-61